Sitka, AK

3:36 PM AKDT on August 31, 2015 (GMT -0800)
Sitka Rocky Gutierrez | | Change Station
CLOSE
Current Station
Airport
Location: Sitka,
Elevation: 20 ft
Nearby Weather Stations

Elev 20 ft 57.05 °N, 135.36 °W | Updated 43 minutes ago

Light Rain
Light Rain
50 °F
Feels Like 50 °F
N
14
Wind Variable Wind from East

Today
High -- | Low -- °F
--% Chance of Precip.
Yesterday
High -- | Low -- °F
Precip. -- in
6:02 AM 8:01 PM
Waning Gibbous, 93% visible
Pressure 29.45 in
Visibility 10.0 miles
Clouds Mostly Cloudy 3000 ft
Mostly Cloudy 3400 ft
Overcast 4700 ft
Dew Point 48 °F
Humidity 93%
Rainfall 0.62 in
Snow Depth Not available.
UV 1 out of 12
Pollen Not available.
Air Quality Not available.
Flu Activity Not available.
METAR PASI 312253Z 10012KT 10SM -RA BKN030 BKN034 OVC047 10/09 A2945 RMK AO2 SLP973 P0005 T01000089
Pressure 29.45 in
Visibility 10.0 miles
Clouds Mostly Cloudy 3000 ft
Mostly Cloudy 3400 ft
Overcast 4700 ft
Dew Point 48 °F
Humidity 93%
Rainfall 0.62 in
Snow Depth Not available.
UV 1 out of 12
Pollen Not available.
Air Quality Not available.
Flu Activity Not available.
METAR PASI 312253Z 10012KT 10SM -RA BKN030 BKN034 OVC047 10/09 A2945 RMK AO2 SLP973 P0005 T01000089

10-Day Weather Forecast

×

Almanac

Astronomy

Aug. 31, 2015 Rise Set
Actual Time
Civil Twilight
Nautical Twilight
Astronomical Twilight
Moon
Length of Visible Light
Length of Day
Tomorrow will be .
, % of the Moon is Illuminated

Today's Extremes

State Highs State Lows

Community

WunderPhotos

Upload Photos

1,851,394 photos uploaded!

WunderBlogs® & News

Nearby

Air Quality

  Air Quality AQ Index Pollutant
Not available.

Snow Depth

Station Depth Elevation

Earthquake Activity

City Distance Mag. Time & Date
Minimum magnitude displayed is 2.5.

Coastal Water Temperatures

Place Temperature

Stations

Nearby Weather Stations

Station Location Temp. Windchill Dew Point Humidity Wind Precip. Elev Updated Type